createdAt,value
2023-03-08T00:03:48.054Z,101798.78
2023-03-08T00:08:54.826Z,101796.25
2023-03-08T00:14:00.144Z,101789.75
2023-03-08T00:19:03.862Z,101781.06
2023-03-08T00:24:07.834Z,101768.06
2023-03-08T00:29:13.461Z,101760.06
2023-03-08T00:34:17.221Z,101768.03
2023-03-08T00:39:20.906Z,101761.16
2023-03-08T00:44:26.406Z,101752.56
2023-03-08T00:49:30.335Z,101761.50
2023-03-08T00:54:34.054Z,101755.88
2023-03-08T00:59:39.557Z,101752.50
2023-03-08T01:04:43.176Z,101750.69
2023-03-08T01:09:46.863Z,101733.56
2023-03-08T01:14:52.185Z,101734.44
2023-03-08T01:19:55.961Z,101730.28
2023-03-08T01:24:59.833Z,101725.75
2023-03-08T01:30:05.497Z,101735.31
2023-03-08T01:35:09.884Z,101734.72
2023-03-08T01:40:16.168Z,101732.16
2023-03-08T01:45:55.908Z,101733.13
2023-03-08T01:51:03.322Z,101725.41
2023-03-08T01:56:09.791Z,101724.53
2023-03-08T02:01:13.565Z,101717.53
2023-03-08T02:06:21.399Z,101720.28
2023-03-08T02:11:27.146Z,101716.03
2023-03-08T02:16:30.784Z,101723.06
2023-03-08T02:21:36.230Z,101724.81
2023-03-08T02:26:41.527Z,101723.09
2023-03-08T02:31:45.232Z,101714.38
2023-03-08T02:36:48.888Z,101725.72
2023-03-08T02:41:54.183Z,101712.75
2023-03-08T02:46:57.855Z,101708.38
2023-03-08T02:52:01.500Z,101716.22
2023-03-08T02:57:06.853Z,101715.34
2023-03-08T03:02:10.496Z,101706.66
2023-03-08T03:07:14.127Z,101704.94
2023-03-08T03:12:19.421Z,101691.03
2023-03-08T03:17:23.150Z,101694.53
2023-03-08T03:22:26.832Z,101696.25
2023-03-08T03:27:33.408Z,101698.88
2023-03-08T03:32:37.078Z,101697.13
2023-03-08T03:37:40.711Z,101701.47
2023-03-08T03:42:46.008Z,101703.19
2023-03-08T03:47:49.641Z,101704.91
2023-03-08T03:52:53.311Z,101697.09
2023-03-08T03:57:59.600Z,101696.28
2023-03-08T04:03:02.522Z,101696.25
2023-03-08T04:08:06.556Z,101697.88
2023-03-08T04:13:12.692Z,101684.00
2023-03-08T04:18:16.336Z,101682.22
2023-03-08T04:23:20.019Z,101688.28
2023-03-08T04:28:25.657Z,101686.56
2023-03-08T04:33:29.328Z,101689.94
2023-03-08T04:38:33.012Z,101693.41
2023-03-08T04:43:38.396Z,101684.75
2023-03-08T04:48:42.428Z,101686.47
2023-03-08T04:53:46.253Z,101689.03
2023-03-08T04:58:51.555Z,101688.97
2023-03-08T05:03:56.435Z,101690.69
2023-03-08T05:09:01.425Z,101689.84
2023-03-08T05:14:06.715Z,101691.50
2023-03-08T05:19:10.384Z,101695.88
2023-03-08T05:24:14.135Z,101697.56
2023-03-08T05:29:19.420Z,101685.38
2023-03-08T05:34:23.056Z,101694.91
2023-03-08T05:39:26.708Z,101688.78
2023-03-08T05:44:32.050Z,101693.06
2023-03-08T05:49:35.754Z,101696.56
2023-03-08T05:54:39.368Z,101689.66
2023-03-08T05:59:44.613Z,101697.38
2023-03-08T06:04:48.274Z,101693.91
2023-03-08T06:09:51.944Z,101695.63
2023-03-08T06:14:57.206Z,101686.88
2023-03-08T06:20:00.816Z,101683.25
2023-03-08T06:25:05.437Z,101685.06
2023-03-08T06:30:12.134Z,101680.56
2023-03-08T06:35:15.761Z,101668.53
2023-03-08T06:40:19.626Z,101675.53
2023-03-08T06:45:24.896Z,101668.03
2023-03-08T06:50:28.528Z,101670.75
2023-03-08T06:55:32.177Z,101665.66
2023-03-08T07:00:37.591Z,101660.47
2023-03-08T07:05:41.424Z,101654.47
2023-03-08T07:10:45.177Z,101642.34
2023-03-08T07:15:50.694Z,101650.19
2023-03-08T07:20:56.045Z,101647.59
2023-03-08T07:25:59.683Z,101651.06
2023-03-08T07:31:05.195Z,101651.94
2023-03-08T07:36:09.211Z,101654.53
2023-03-08T07:41:12.854Z,101657.13
2023-03-08T07:46:18.214Z,101647.66
2023-03-08T07:51:22.170Z,101640.72
2023-03-08T07:56:25.887Z,101643.38
2023-03-08T08:01:31.433Z,101637.28
2023-03-08T08:06:36.977Z,101642.50
2023-03-08T08:11:40.584Z,101632.06
2023-03-08T08:16:45.925Z,101632.09
2023-03-08T08:21:49.577Z,101629.47
2023-03-08T08:26:53.342Z,101638.16
2023-03-08T08:31:58.649Z,101633.81
2023-03-08T08:37:02.313Z,101627.72
2023-03-08T08:42:06.141Z,101616.44
2023-03-08T08:47:12.423Z,101615.56
2023-03-08T08:52:15.273Z,101618.19
2023-03-08T08:57:18.900Z,101607.75
2023-03-08T09:02:24.214Z,101605.13
2023-03-08T09:07:27.886Z,101601.69
2023-03-08T09:12:31.974Z,101609.50
2023-03-08T09:17:37.260Z,101586.06
2023-03-08T09:22:41.212Z,101590.38
2023-03-08T09:27:44.905Z,101583.47
2023-03-08T09:32:50.213Z,101572.16
2023-03-08T09:37:55.509Z,101567.81
2023-03-08T09:43:06.010Z,101565.22
2023-03-08T09:48:18.257Z,101552.22
2023-03-08T09:53:28.354Z,101552.25
2023-03-08T09:58:39.580Z,101535.78
2023-03-08T10:04:08.441Z,101540.13
2023-03-08T10:09:31.515Z,101528.00
2023-03-08T10:14:39.614Z,101528.03
2023-03-08T10:19:49.874Z,101517.63
2023-03-08T10:25:00.568Z,101541.91
2023-03-08T10:30:14.562Z,101534.97
2023-03-08T10:35:31.156Z,101524.56
2023-03-08T10:40:34.016Z,101514.16
2023-03-08T10:45:37.715Z,101514.13
2023-03-08T10:50:42.985Z,101521.06
2023-03-08T10:55:49.728Z,101524.53
2023-03-08T11:00:55.165Z,101502.84
2023-03-08T11:06:02.371Z,101507.19
2023-03-08T11:11:09.400Z,101487.25
2023-03-08T11:16:31.771Z,101489.88
2023-03-08T11:21:47.842Z,101470.81
2023-03-08T11:27:04.031Z,101466.47
2023-03-08T11:32:18.856Z,101464.75
2023-03-08T11:37:32.375Z,101469.09
2023-03-08T11:42:49.668Z,101486.41
2023-03-08T11:48:07.191Z,101481.22
2023-03-08T11:53:29.699Z,101479.47
2023-03-08T11:58:37.440Z,101488.13
2023-03-08T12:03:47.243Z,101482.91
2023-03-08T12:08:57.855Z,101483.81
2023-03-08T12:14:07.154Z,101472.50
2023-03-08T12:19:19.651Z,101464.72
2023-03-08T12:24:36.240Z,101467.34
2023-03-08T12:29:43.368Z,101472.50
2023-03-08T12:34:48.163Z,101471.63
2023-03-08T12:40:02.451Z,101473.38
2023-03-08T12:45:26.583Z,101484.66
2023-03-08T12:50:31.336Z,101497.69
2023-03-08T12:55:36.666Z,101495.94
2023-03-08T13:00:40.368Z,101513.28
2023-03-08T13:05:44.667Z,101529.72
2023-03-08T13:11:12.101Z,101543.59
2023-03-08T13:16:33.794Z,101540.06
2023-03-08T13:21:40.922Z,101549.59
2023-03-08T13:26:58.356Z,101561.69
2023-03-08T13:32:08.377Z,101564.31
2023-03-08T13:37:22.480Z,101552.91
2023-03-08T13:42:29.566Z,101555.56
2023-03-08T13:47:36.323Z,101553.84
2023-03-08T13:52:40.015Z,101567.72
2023-03-08T13:57:50.800Z,101552.88
2023-03-08T14:02:54.743Z,101545.09
2023-03-08T14:08:00.554Z,101562.44
2023-03-08T14:13:07.925Z,101575.47
2023-03-08T14:18:22.707Z,101581.50
2023-03-08T14:23:27.588Z,101583.16
2023-03-08T14:28:50.437Z,101597.88
2023-03-08T14:33:59.653Z,101608.19
2023-03-08T14:39:03.358Z,101622.84
2023-03-08T14:44:17.914Z,101633.22
2023-03-08T14:49:23.758Z,101638.44
2023-03-08T14:54:35.245Z,101650.59
2023-03-08T14:59:43.226Z,101670.50
2023-03-08T15:04:47.619Z,101667.06
2023-03-08T15:09:52.230Z,101674.81
2023-03-08T15:14:57.606Z,101678.22
2023-03-08T15:20:01.282Z,101675.56
2023-03-08T15:25:13.054Z,101683.38
2023-03-08T15:30:24.245Z,101683.41
2023-03-08T15:35:27.966Z,101686.00
2023-03-08T15:40:35.068Z,101690.59
2023-03-08T15:45:40.520Z,101720.41
2023-03-08T15:50:45.729Z,101740.53
2023-03-08T15:55:49.368Z,101764.78
2023-03-08T16:00:54.688Z,101775.19
2023-03-08T16:05:58.413Z,101784.78
2023-03-08T16:11:02.088Z,101787.41
2023-03-08T16:16:08.335Z,101790.00
2023-03-08T16:21:11.794Z,101790.78
2023-03-08T16:26:17.746Z,101801.56
2023-03-08T16:31:23.829Z,101821.91
2023-03-08T16:36:27.554Z,101825.31
2023-03-08T16:41:31.240Z,101823.66
2023-03-08T16:46:36.518Z,101841.63
2023-03-08T16:51:40.305Z,101842.22
2023-03-08T16:56:44.884Z,101846.56
2023-03-08T17:01:50.237Z,101861.06
2023-03-08T17:06:53.866Z,101866.94
2023-03-08T17:11:57.508Z,101875.25
2023-03-08T17:17:02.809Z,101891.34
2023-03-08T17:22:06.547Z,101888.63
2023-03-08T17:27:10.952Z,101879.63
2023-03-08T17:32:16.271Z,101882.16
2023-03-08T17:37:19.942Z,101886.75
2023-03-08T17:42:23.599Z,101891.09
2023-03-08T17:47:28.881Z,101891.44
2023-03-08T17:52:35.051Z,101904.81
2023-03-08T17:57:39.343Z,101915.38
2023-03-08T18:02:45.663Z,101916.16
2023-03-08T18:07:49.282Z,101919.63
2023-03-08T18:12:52.917Z,101918.47
2023-03-08T18:17:58.267Z,101915.47
2023-03-08T18:23:01.972Z,101929.09
2023-03-08T18:33:33.665Z,101938.28
2023-03-08T18:38:37.391Z,101926.13
2023-03-08T18:43:41.117Z,101929.88
2023-03-08T18:48:46.406Z,101928.41
2023-03-08T18:53:50.090Z,101933.22
2023-03-08T18:58:54.016Z,101929.31
2023-03-08T19:04:00.264Z,101943.22
2023-03-08T19:09:09.579Z,101931.78
2023-03-08T19:14:13.470Z,101938.72
2023-03-08T19:19:18.806Z,101950.66
2023-03-08T19:24:22.665Z,101940.81
2023-03-08T19:29:28.111Z,101943.69
2023-03-08T19:34:34.910Z,101926.13
2023-03-08T19:39:39.825Z,101930.75
2023-03-08T19:44:43.593Z,101931.19
2023-03-08T19:49:49.109Z,101924.31
2023-03-08T19:54:52.779Z,101917.03
2023-03-08T19:59:57.758Z,101919.09
2023-03-08T20:05:03.385Z,101908.44
2023-03-08T20:10:15.997Z,101887.53
2023-03-08T20:15:20.125Z,101881.69
2023-03-08T20:20:25.423Z,101870.47
2023-03-08T20:25:29.073Z,101846.78
2023-03-08T20:30:32.752Z,101854.31
2023-03-08T20:35:38.463Z,101848.94
2023-03-08T20:40:42.151Z,101835.44
2023-03-08T20:45:45.811Z,101821.06
2023-03-08T20:50:51.175Z,101824.13
2023-03-08T20:55:54.872Z,101812.66
2023-03-08T21:00:58.537Z,101812.34
2023-03-08T21:06:03.841Z,101802.06
2023-03-08T21:11:07.602Z,101806.16
2023-03-08T21:16:14.149Z,101781.19
2023-03-08T21:21:24.893Z,101780.25
2023-03-08T21:26:29.968Z,101775.59
2023-03-08T21:31:35.818Z,101765.66
2023-03-08T21:36:40.458Z,101781.72
2023-03-08T21:41:46.160Z,101788.59
2023-03-08T21:46:50.553Z,101772.63
2023-03-08T21:51:57.222Z,101780.47
2023-03-08T21:57:00.950Z,101783.66
2023-03-08T22:02:04.699Z,101781.53
2023-03-08T22:07:10.022Z,101781.34
2023-03-08T22:12:13.693Z,101778.06
2023-03-08T22:17:17.319Z,101794.63
2023-03-08T22:22:22.604Z,101780.41
2023-03-08T22:27:26.321Z,101805.53
2023-03-08T22:32:29.983Z,101797.06
2023-03-08T22:37:35.465Z,101794.91
2023-03-08T22:42:39.427Z,101798.13
2023-03-08T22:47:43.146Z,101791.81
2023-03-08T22:52:48.414Z,101813.41
2023-03-08T22:57:52.047Z,101800.56
2023-03-08T23:02:57.784Z,101796.16
2023-03-08T23:08:03.144Z,101796.22
2023-03-08T23:13:06.754Z,101800.00
2023-03-08T23:18:10.402Z,101786.16
2023-03-08T23:23:15.682Z,101794.28
2023-03-08T23:28:19.330Z,101791.53
2023-03-08T23:33:22.996Z,101792.28
2023-03-08T23:38:28.702Z,101799.34
2023-03-08T23:43:32.413Z,101789.94
2023-03-08T23:48:36.650Z,101785.16
2023-03-08T23:53:41.993Z,101791.59
2023-03-08T23:58:45.627Z,101790.06
